Tacoma Park, South Dakota
Current Conditions -  °F | °C
As of 11:53 PM on Wednesday 28 Jan 2015 (Local Time) from KABR Reporting Station
Overcast Overcast  
Wind Chill: 19°   Ceiling: 3500
Heat Index: 32°   Visibility: 10mi
Dew Point: 26°   Wind: 25mph
Humidity: 79%   Direction: 340°NNW
Pressure: 30.14"   Gusts: 37mph
Location:  45.6832°N, 98.2967°W
Report Text: KABR 290553Z AUTO 34022G32KT 10SM SCT023 OVC035 00/M03 A3014 RMK AO2 PK WND 33035/0509 SLP219 T00001033 10017 20000 400611022 51029
Loading
Personal Weather Stations






























Interactive Weather Map New forecast layout! Learn more

10-Day Weather Forecast

Advertisements
Track Severe Weather on mobile